createdAt,value
2018-11-05T00:02:00.152Z,11.64
2018-11-05T00:04:28.228Z,11.63
2018-11-05T00:06:56.292Z,11.60
2018-11-05T00:09:24.368Z,11.61
2018-11-05T00:11:52.440Z,11.63
2018-11-05T00:14:21.092Z,11.65
2018-11-05T00:16:50.278Z,11.69
2018-11-05T00:19:19.580Z,11.72
2018-11-05T00:21:47.768Z,11.71
2018-11-05T00:24:15.836Z,11.68
2018-11-05T00:26:44.261Z,11.69
2018-11-05T00:29:12.322Z,11.68
2018-11-05T00:31:40.476Z,11.69
2018-11-05T00:34:08.660Z,11.69
2018-11-05T00:36:36.718Z,11.68
2018-11-05T00:39:07.479Z,11.69
2018-11-05T00:41:35.860Z,11.68
2018-11-05T00:44:03.945Z,11.67
2018-11-05T00:46:31.995Z,11.70
2018-11-05T00:49:00.076Z,11.74
2018-11-05T00:51:28.137Z,11.76
2018-11-05T00:53:56.240Z,11.78
2018-11-05T00:56:25.100Z,11.79
2018-11-05T00:58:53.165Z,11.79
2018-11-05T01:01:21.261Z,11.78
2018-11-05T01:03:49.361Z,11.75
2018-11-05T01:06:19.571Z,11.75
2018-11-05T01:08:47.702Z,11.72
2018-11-05T01:11:15.769Z,11.71
2018-11-05T01:13:43.840Z,11.71
2018-11-05T01:16:11.902Z,11.70
2018-11-05T01:18:39.979Z,11.69
2018-11-05T01:21:08.124Z,11.69
2018-11-05T01:23:36.192Z,11.69
2018-11-05T01:26:04.332Z,11.75
2018-11-05T01:28:32.400Z,11.77
2018-11-05T01:31:00.472Z,11.78
2018-11-05T01:33:28.544Z,11.75
2018-11-05T01:35:56.608Z,11.74
2018-11-05T01:38:24.668Z,11.74
2018-11-05T01:40:52.736Z,11.74
2018-11-05T01:43:20.844Z,11.73
2018-11-05T01:45:48.959Z,11.71
2018-11-05T01:48:17.016Z,11.69
2018-11-05T01:50:45.087Z,11.67
2018-11-05T01:53:13.144Z,11.64
2018-11-05T01:55:41.216Z,11.67
2018-11-05T01:58:09.313Z,11.69
2018-11-05T02:00:37.392Z,11.71
2018-11-05T02:03:05.570Z,11.74
2018-11-05T02:05:33.644Z,11.78
2018-11-05T02:08:01.717Z,11.80
2018-11-05T02:10:29.876Z,11.83
2018-11-05T02:12:57.862Z,11.83
2018-11-05T02:15:25.932Z,11.83
2018-11-05T02:17:54.005Z,11.84
2018-11-05T02:20:22.086Z,11.86
2018-11-05T02:22:50.139Z,11.88
2018-11-05T02:25:18.213Z,11.90
2018-11-05T02:27:46.277Z,11.88
2018-11-05T02:30:16.372Z,11.84
2018-11-05T02:32:44.644Z,11.84
2018-11-05T02:35:13.536Z,11.86
2018-11-05T02:37:42.420Z,11.87
2018-11-05T02:40:12.739Z,11.86
2018-11-05T02:42:41.526Z,11.84
2018-11-05T02:45:10.931Z,11.84
2018-11-05T02:47:38.998Z,11.85
2018-11-05T02:50:08.299Z,11.82
2018-11-05T02:52:36.488Z,11.81
2018-11-05T02:55:04.742Z,11.82
2018-11-05T02:57:32.846Z,11.82
2018-11-05T03:00:00.922Z,11.81
2018-11-05T03:02:29.045Z,11.76
2018-11-05T03:04:57.119Z,11.76
2018-11-05T03:07:25.209Z,11.79
2018-11-05T03:09:53.380Z,11.77
2018-11-05T03:12:21.431Z,11.80
2018-11-05T03:14:49.503Z,11.85
2018-11-05T03:17:17.613Z,11.84
2018-11-05T03:19:45.660Z,11.79
2018-11-05T03:22:13.736Z,11.79
2018-11-05T03:24:41.860Z,11.79
2018-11-05T03:27:09.935Z,11.84
2018-11-05T03:29:38.014Z,11.84
2018-11-05T03:32:06.402Z,11.84
2018-11-05T03:34:34.416Z,11.80
2018-11-05T03:37:02.495Z,11.77
2018-11-05T03:39:30.533Z,11.75
2018-11-05T03:41:58.616Z,11.75
2018-11-05T03:44:26.693Z,11.75
2018-11-05T03:46:54.756Z,11.72
2018-11-05T03:49:22.824Z,11.71
2018-11-05T03:51:50.888Z,11.69
2018-11-05T03:54:18.948Z,11.70
2018-11-05T03:56:47.095Z,11.72
2018-11-05T03:59:15.089Z,11.75
2018-11-05T04:01:43.188Z,11.74
2018-11-05T04:04:11.252Z,11.70
2018-11-05T04:06:39.362Z,11.69
2018-11-05T04:09:09.025Z,11.72
2018-11-05T04:11:37.104Z,11.73
2018-11-05T04:14:05.172Z,11.74
2018-11-05T04:16:33.521Z,11.72
2018-11-05T04:19:01.587Z,11.69
2018-11-05T04:21:34.748Z,11.68
2018-11-05T04:24:02.828Z,11.63
2018-11-05T04:26:30.916Z,11.66
2018-11-05T04:28:58.981Z,11.68
2018-11-05T04:31:27.036Z,11.69
2018-11-05T04:33:55.109Z,11.68
2018-11-05T04:36:23.201Z,11.69
2018-11-05T04:38:51.255Z,11.69
2018-11-05T04:41:19.325Z,11.71
2018-11-05T04:43:47.436Z,11.64
2018-11-05T04:46:15.480Z,11.61
2018-11-05T04:48:43.552Z,11.63
2018-11-05T04:51:11.656Z,11.64
2018-11-05T04:53:39.704Z,11.65
2018-11-05T04:56:07.975Z,11.67
2018-11-05T04:58:36.079Z,11.67
2018-11-05T05:01:04.181Z,11.68
2018-11-05T05:03:32.281Z,11.70
2018-11-05T05:06:00.344Z,11.69
2018-11-05T05:08:28.401Z,11.70
2018-11-05T05:10:56.483Z,11.68
2018-11-05T05:13:24.555Z,11.69
2018-11-05T05:15:52.669Z,11.72
2018-11-05T05:18:20.739Z,11.75
2018-11-05T05:20:48.812Z,11.74
2018-11-05T05:23:16.989Z,11.71
2018-11-05T05:25:45.098Z,11.72
2018-11-05T05:28:13.270Z,11.75
2018-11-05T05:30:41.348Z,11.77
2018-11-05T05:33:09.461Z,11.74
2018-11-05T05:35:37.495Z,11.77
2018-11-05T05:38:05.833Z,11.78
2018-11-05T05:40:33.969Z,11.76
2018-11-05T05:43:02.037Z,11.77
2018-11-05T05:45:30.178Z,11.80
2018-11-05T05:47:58.257Z,11.82
2018-11-05T05:50:26.329Z,11.83
2018-11-05T05:52:54.416Z,11.84
2018-11-05T05:55:22.492Z,11.86
2018-11-05T05:57:50.660Z,11.88
2018-11-05T06:00:19.016Z,11.86
2018-11-05T06:02:47.103Z,11.86
2018-11-05T06:05:15.656Z,11.86
2018-11-05T06:07:44.140Z,11.84
2018-11-05T06:10:13.328Z,11.84
2018-11-05T06:12:41.417Z,11.87
2018-11-05T06:15:11.417Z,11.91
2018-11-05T06:17:39.520Z,11.93
2018-11-05T06:20:10.219Z,11.89
2018-11-05T06:22:38.304Z,11.87
2018-11-05T06:25:07.197Z,11.88
2018-11-05T06:27:35.336Z,11.89
2018-11-05T06:30:03.820Z,11.86
2018-11-05T06:32:31.945Z,11.85
2018-11-05T06:35:00.015Z,11.85
2018-11-05T06:37:28.080Z,11.88
2018-11-05T06:39:56.159Z,11.91
2018-11-05T06:42:24.237Z,11.93
2018-11-05T06:44:52.358Z,11.92
2018-11-05T06:47:20.435Z,11.91
2018-11-05T06:49:48.596Z,11.91
2018-11-05T06:52:16.620Z,11.93
2018-11-05T06:54:44.725Z,11.94
2018-11-05T06:57:12.811Z,11.94
2018-11-05T06:59:40.880Z,11.96
2018-11-05T07:02:08.952Z,11.96
2018-11-05T07:04:37.113Z,11.99
2018-11-05T07:07:05.777Z,11.99
2018-11-05T07:09:33.865Z,12.01
2018-11-05T07:12:01.989Z,12.01
2018-11-05T07:14:30.077Z,12.03
2018-11-05T07:16:58.174Z,12.03
2018-11-05T07:19:26.324Z,12.05
2018-11-05T07:21:54.344Z,12.07
2018-11-05T07:24:22.469Z,12.06
2018-11-05T07:26:50.563Z,12.07
2018-11-05T07:29:18.624Z,12.05
2018-11-05T07:31:46.726Z,12.07
2018-11-05T07:34:15.040Z,12.07
2018-11-05T07:36:43.092Z,12.09
2018-11-05T07:39:12.382Z,12.14
2018-11-05T07:41:40.630Z,12.18
2018-11-05T07:44:09.112Z,12.19
2018-11-05T07:46:37.219Z,12.21
2018-11-05T07:49:05.293Z,12.24
2018-11-05T07:51:33.496Z,12.25
2018-11-05T07:54:01.577Z,12.24
2018-11-05T07:56:29.655Z,12.26
2018-11-05T07:58:57.766Z,12.28
2018-11-05T08:01:25.868Z,12.27
2018-11-05T08:03:53.989Z,12.29
2018-11-05T08:06:22.496Z,12.31
2018-11-05T08:08:50.579Z,12.33
2018-11-05T08:11:18.697Z,12.35
2018-11-05T08:13:46.775Z,12.32
2018-11-05T08:16:14.930Z,12.33
2018-11-05T08:18:43.374Z,12.37
2018-11-05T08:21:11.456Z,12.45
2018-11-05T08:23:39.536Z,12.46
2018-11-05T08:26:07.623Z,12.47
2018-11-05T08:28:35.721Z,12.50
2018-11-05T08:31:03.847Z,12.52
2018-11-05T08:33:31.924Z,12.51
2018-11-05T08:36:00.011Z,12.54
2018-11-05T08:38:28.069Z,12.56
2018-11-05T08:40:56.184Z,12.59
2018-11-05T08:43:24.257Z,12.60
2018-11-05T08:45:52.564Z,12.61
2018-11-05T08:48:20.884Z,12.60
2018-11-05T08:50:49.078Z,12.63
2018-11-05T08:53:17.044Z,12.63
2018-11-05T08:55:45.131Z,12.65
2018-11-05T08:58:13.204Z,12.68
2018-11-05T09:00:46.769Z,12.70
2018-11-05T09:03:14.815Z,12.71
2018-11-05T09:05:42.892Z,12.71
2018-11-05T09:08:10.948Z,12.73
2018-11-05T09:10:39.206Z,12.76
2018-11-05T09:13:07.141Z,12.80
2018-11-05T09:15:35.217Z,12.84
2018-11-05T09:18:03.383Z,12.88
2018-11-05T09:20:31.439Z,12.92
2018-11-05T09:22:59.501Z,12.92
2018-11-05T09:25:27.576Z,12.95
2018-11-05T09:27:55.716Z,12.98
2018-11-05T09:30:24.635Z,12.99
2018-11-05T09:32:52.887Z,13.01
2018-11-05T09:35:20.960Z,13.04
2018-11-05T09:37:49.034Z,13.06
2018-11-05T09:40:19.391Z,13.06
2018-11-05T09:42:47.981Z,13.03
2018-11-05T09:45:22.052Z,13.06
2018-11-05T09:47:50.119Z,13.05
2018-11-05T09:50:18.970Z,13.04
2018-11-05T09:52:47.025Z,13.05
2018-11-05T09:55:15.569Z,13.04
2018-11-05T09:57:43.654Z,13.05
2018-11-05T10:00:18.506Z,13.07
2018-11-05T10:02:52.207Z,13.10
2018-11-05T10:05:20.362Z,13.13
2018-11-05T10:07:48.296Z,13.17
2018-11-05T10:10:17.178Z,13.20
2018-11-05T10:12:45.377Z,13.21
2018-11-05T10:15:14.789Z,13.26
2018-11-05T10:17:42.940Z,13.31
2018-11-05T10:20:21.804Z,13.38
2018-11-05T10:22:49.864Z,13.38
2018-11-05T10:25:18.187Z,13.41
2018-11-05T10:27:46.508Z,13.40
2018-11-05T10:30:16.935Z,13.43
2018-11-05T10:32:45.097Z,13.46
2018-11-05T10:35:14.064Z,13.46
2018-11-05T10:37:42.144Z,13.47
2018-11-05T10:40:12.534Z,13.48
2018-11-05T10:42:40.856Z,13.48
2018-11-05T10:45:10.239Z,13.48
2018-11-05T10:47:38.832Z,13.50
2018-11-05T10:50:07.536Z,13.53
2018-11-05T10:52:35.900Z,13.55
2018-11-05T10:55:04.012Z,13.57
2018-11-05T10:57:32.086Z,13.57
2018-11-05T11:00:00.165Z,13.56
2018-11-05T11:02:33.697Z,13.56
2018-11-05T11:05:01.771Z,13.56
2018-11-05T11:07:29.846Z,13.56
2018-11-05T11:09:57.924Z,13.53
2018-11-05T11:12:26.011Z,13.48
2018-11-05T11:14:54.063Z,13.44
2018-11-05T11:17:22.136Z,13.42
2018-11-05T11:19:50.189Z,13.42
2018-11-05T11:22:18.276Z,13.44
2018-11-05T11:24:46.349Z,13.45
2018-11-05T11:27:14.432Z,13.46
2018-11-05T11:29:42.517Z,13.43
2018-11-05T11:32:10.588Z,13.41
2018-11-05T11:34:38.653Z,13.42
2018-11-05T11:37:06.822Z,13.44
2018-11-05T11:39:34.865Z,13.46
2018-11-05T11:42:03.017Z,13.51
2018-11-05T11:44:31.031Z,13.53
2018-11-05T11:46:59.084Z,13.53
2018-11-05T11:49:27.160Z,13.54
2018-11-05T11:51:55.234Z,13.53
2018-11-05T11:54:23.336Z,13.52
2018-11-05T11:56:51.457Z,13.54
2018-11-05T11:59:19.575Z,13.54
2018-11-05T12:01:53.214Z,13.55
2018-11-05T12:04:21.481Z,13.58
2018-11-05T12:06:49.622Z,13.57
2018-11-05T12:09:17.700Z,13.60
2018-11-05T12:11:45.782Z,13.60
2018-11-05T12:14:13.962Z,13.59
2018-11-05T12:16:42.325Z,13.56
2018-11-05T12:19:10.437Z,13.57
2018-11-05T12:21:38.523Z,13.57
2018-11-05T12:24:06.868Z,13.59
2018-11-05T12:26:35.611Z,13.62
2018-11-05T12:29:04.062Z,13.64
2018-11-05T12:31:32.376Z,13.66
2018-11-05T12:34:00.473Z,13.71
2018-11-05T12:36:28.541Z,13.74
2018-11-05T12:38:56.730Z,13.85
2018-11-05T12:41:25.034Z,13.86
2018-11-05T12:43:53.147Z,13.87
2018-11-05T12:46:21.235Z,13.86
2018-11-05T12:48:49.307Z,13.92
2018-11-05T12:51:17.436Z,13.91
2018-11-05T12:53:45.556Z,13.89
2018-11-05T12:56:13.877Z,13.88
2018-11-05T12:58:41.958Z,13.86
2018-11-05T13:01:10.093Z,13.91
2018-11-05T13:03:38.184Z,13.93
2018-11-05T13:06:06.228Z,13.94
2018-11-05T13:08:34.489Z,13.89
2018-11-05T13:11:02.596Z,13.81
2018-11-05T13:13:30.660Z,13.80
2018-11-05T13:15:58.715Z,13.80
2018-11-05T13:18:26.840Z,13.74
2018-11-05T13:20:54.918Z,13.74
2018-11-05T13:23:28.307Z,13.69
2018-11-05T13:25:56.380Z,13.67
2018-11-05T13:28:24.574Z,13.68
2018-11-05T13:30:52.569Z,13.68
2018-11-05T13:33:20.642Z,13.68
2018-11-05T13:35:48.701Z,13.69
2018-11-05T13:38:17.363Z,13.71
2018-11-05T13:40:44.819Z,13.74
2018-11-05T13:43:12.891Z,13.74
2018-11-05T13:45:41.406Z,13.73
2018-11-05T13:48:09.284Z,13.74
2018-11-05T13:50:37.099Z,13.73
2018-11-05T13:53:05.212Z,13.74
2018-11-05T13:55:33.276Z,13.74
2018-11-05T13:58:01.357Z,13.77
2018-11-05T14:00:29.436Z,13.76
2018-11-05T14:02:57.544Z,13.77
2018-11-05T14:05:25.609Z,13.75
2018-11-05T14:07:53.684Z,13.73
2018-11-05T14:10:21.898Z,13.69
2018-11-05T14:12:50.569Z,13.67
2018-11-05T14:15:18.589Z,13.66
2018-11-05T14:17:46.895Z,13.62
2018-11-05T14:20:16.003Z,13.61
2018-11-05T14:22:44.132Z,13.60
2018-11-05T14:25:14.439Z,13.62
2018-11-05T14:27:43.723Z,13.66
2018-11-05T14:30:12.638Z,13.65
2018-11-05T14:32:41.753Z,13.63
2018-11-05T14:35:09.841Z,13.64
2018-11-05T14:37:38.025Z,13.62
2018-11-05T14:40:07.106Z,13.63
2018-11-05T14:42:35.249Z,13.61
2018-11-05T14:45:03.316Z,13.60
2018-11-05T14:47:31.384Z,13.59
2018-11-05T14:49:59.448Z,13.57
2018-11-05T14:52:27.554Z,13.57
2018-11-05T14:54:55.658Z,13.55
2018-11-05T14:57:23.753Z,13.54
2018-11-05T14:59:51.773Z,13.53
2018-11-05T15:02:25.432Z,13.48
2018-11-05T15:04:53.541Z,13.48
2018-11-05T15:09:56.057Z,13.91
2018-11-05T15:12:24.120Z,13.98
2018-11-05T15:14:52.191Z,14.20
2018-11-05T15:17:20.253Z,14.30
2018-11-05T15:19:48.678Z,14.42
2018-11-05T15:22:16.392Z,14.43
2018-11-05T15:24:44.460Z,14.34
2018-11-05T15:27:12.521Z,14.24
2018-11-05T15:29:40.749Z,14.16
2018-11-05T15:32:09.957Z,14.00
2018-11-05T15:34:38.072Z,13.87
2018-11-05T15:37:06.161Z,13.79
2018-11-05T15:39:34.337Z,13.75
2018-11-05T15:42:02.481Z,13.66
2018-11-05T15:44:30.626Z,13.61
2018-11-05T15:46:58.797Z,13.55
2018-11-05T15:49:26.882Z,13.49
2018-11-05T15:51:55.209Z,13.44
2018-11-05T15:54:23.199Z,13.42
2018-11-05T15:56:51.177Z,13.42
2018-11-05T15:59:19.254Z,13.42
2018-11-05T16:01:47.413Z,13.42
2018-11-05T16:04:16.008Z,13.43
2018-11-05T16:06:44.823Z,13.43
2018-11-05T16:09:13.064Z,13.40
2018-11-05T16:11:41.529Z,13.38
2018-11-05T16:14:10.782Z,13.38
2018-11-05T16:16:38.886Z,13.38
2018-11-05T16:19:07.448Z,13.39
2018-11-05T16:21:35.595Z,13.37
2018-11-05T16:24:03.664Z,13.36
2018-11-05T16:26:31.901Z,13.34
2018-11-05T16:29:00.044Z,13.33
2018-11-05T16:31:28.140Z,13.32
2018-11-05T16:33:56.204Z,13.29
2018-11-05T16:36:24.351Z,13.30
2018-11-05T16:38:52.439Z,13.31
2018-11-05T16:41:20.751Z,13.32
2018-11-05T16:43:48.829Z,13.33
2018-11-05T16:46:16.910Z,13.36
2018-11-05T16:48:44.972Z,13.36
2018-11-05T16:51:13.044Z,13.37
2018-11-05T16:53:41.141Z,13.35
2018-11-05T16:56:09.155Z,13.35
2018-11-05T16:58:37.260Z,13.35
2018-11-05T17:01:05.937Z,13.35
2018-11-05T17:03:33.905Z,13.34
2018-11-05T17:06:02.001Z,13.32
2018-11-05T17:08:30.284Z,13.34
2018-11-05T17:10:58.397Z,13.34
2018-11-05T17:13:26.574Z,13.35
2018-11-05T17:15:54.551Z,13.35
2018-11-05T17:18:22.632Z,13.37
2018-11-05T17:20:50.732Z,13.38
2018-11-05T17:23:18.803Z,13.39
2018-11-05T17:25:46.885Z,13.41
2018-11-05T17:28:15.016Z,13.40
2018-11-05T17:30:43.103Z,13.38
2018-11-05T17:33:11.180Z,13.38
2018-11-05T17:35:39.304Z,13.39
2018-11-05T17:38:07.385Z,13.36
2018-11-05T17:40:35.457Z,13.36
2018-11-05T17:43:03.544Z,13.36
2018-11-05T17:45:31.620Z,13.36
2018-11-05T17:47:59.741Z,13.39
2018-11-05T17:50:27.816Z,13.39
2018-11-05T17:52:55.889Z,13.38
2018-11-05T17:55:23.960Z,13.39
2018-11-05T17:57:52.051Z,13.37
2018-11-05T18:00:21.347Z,13.35
2018-11-05T18:02:49.433Z,13.35
2018-11-05T18:05:17.513Z,13.33
2018-11-05T18:07:45.712Z,13.35
2018-11-05T18:10:13.804Z,13.34
2018-11-05T18:12:41.908Z,13.34
2018-11-05T18:15:10.949Z,13.34
2018-11-05T18:17:40.212Z,13.31
2018-11-05T18:20:09.589Z,13.28
2018-11-05T18:22:37.732Z,13.28
2018-11-05T18:25:06.846Z,13.24
2018-11-05T18:27:34.955Z,13.21
2018-11-05T18:30:03.038Z,13.17
2018-11-05T18:32:31.124Z,13.12
2018-11-05T18:34:59.276Z,13.10
2018-11-05T18:37:27.396Z,13.08
2018-11-05T18:39:55.488Z,13.07
2018-11-05T18:42:23.550Z,13.07
2018-11-05T18:44:57.501Z,13.05
2018-11-05T18:47:25.612Z,13.03
2018-11-05T18:49:53.711Z,13.03
2018-11-05T18:52:21.785Z,13.01
2018-11-05T18:54:49.967Z,12.98
2018-11-05T18:57:18.118Z,12.95
2018-11-05T18:59:46.221Z,12.93
2018-11-05T19:02:19.801Z,12.92
2018-11-05T19:04:49.066Z,12.91
2018-11-05T19:07:17.182Z,12.88
2018-11-05T19:09:45.273Z,12.87
2018-11-05T19:12:13.340Z,12.88
2018-11-05T19:14:41.416Z,12.86
2018-11-05T19:17:09.487Z,12.82
2018-11-05T19:19:37.669Z,12.81
2018-11-05T19:22:06.078Z,12.78
2018-11-05T19:24:34.812Z,12.75
2018-11-05T19:27:02.634Z,12.74
2018-11-05T19:29:30.708Z,12.70
2018-11-05T19:31:58.812Z,12.66
2018-11-05T19:34:26.936Z,12.64
2018-11-05T19:36:55.028Z,12.62
2018-11-05T19:39:23.095Z,12.59
2018-11-05T19:41:51.197Z,12.58
2018-11-05T19:44:19.241Z,12.57
2018-11-05T19:46:47.340Z,12.55
2018-11-05T19:49:15.419Z,12.52
2018-11-05T19:51:43.539Z,12.49
2018-11-05T19:54:11.598Z,12.50
2018-11-05T19:56:39.964Z,12.48
2018-11-05T19:59:08.089Z,12.45
2018-11-05T20:01:36.209Z,12.46
2018-11-05T20:04:04.497Z,12.47
2018-11-05T20:06:32.586Z,12.47
2018-11-05T20:09:00.651Z,12.45
2018-11-05T20:11:28.725Z,12.47
2018-11-05T20:13:56.786Z,12.45
2018-11-05T20:16:24.848Z,12.41
2018-11-05T20:18:52.972Z,12.34
2018-11-05T20:21:20.989Z,12.37
2018-11-05T20:23:49.129Z,12.35
2018-11-05T20:26:17.193Z,12.36
2018-11-05T20:28:45.419Z,12.34
2018-11-05T20:31:13.678Z,12.34
2018-11-05T20:33:41.792Z,12.34
2018-11-05T20:36:09.729Z,12.36
2018-11-05T20:38:37.783Z,12.36
2018-11-05T20:41:05.866Z,12.37
2018-11-05T20:43:33.931Z,12.38
2018-11-05T20:46:03.472Z,12.38
2018-11-05T20:48:31.564Z,12.36
2018-11-05T20:50:59.623Z,12.34
2018-11-05T20:53:27.724Z,12.32
2018-11-05T20:55:55.776Z,12.34
2018-11-05T20:58:23.837Z,12.32
2018-11-05T21:00:52.865Z,12.29
2018-11-05T21:03:20.901Z,12.22
2018-11-05T21:05:52.858Z,12.13
2018-11-05T21:08:20.920Z,12.10
2018-11-05T21:10:49.033Z,12.07
2018-11-05T21:13:17.113Z,12.06
2018-11-05T21:15:45.195Z,12.05
2018-11-05T21:18:13.257Z,12.03
2018-11-05T21:20:41.327Z,12.01
2018-11-05T21:23:09.401Z,12.02
2018-11-05T21:25:37.523Z,11.99
2018-11-05T21:28:05.905Z,11.95
2018-11-05T21:30:33.957Z,11.90
2018-11-05T21:33:02.124Z,11.86
2018-11-05T21:35:30.123Z,11.85
2018-11-05T21:37:58.216Z,11.85
2018-11-05T21:40:26.336Z,11.82
2018-11-05T21:42:54.408Z,11.82
2018-11-05T21:45:22.482Z,11.83
2018-11-05T21:47:50.744Z,11.83
2018-11-05T21:50:26.340Z,11.80
2018-11-05T21:52:54.815Z,11.78
2018-11-05T21:55:31.364Z,11.72
2018-11-05T21:57:59.426Z,11.71
2018-11-05T22:00:28.808Z,11.63
2018-11-05T22:03:01.247Z,11.61
2018-11-05T22:05:34.243Z,11.58
2018-11-05T22:08:02.360Z,11.56
2018-11-05T22:10:32.148Z,11.52
2018-11-05T22:13:00.204Z,11.49
2018-11-05T22:15:45.741Z,11.46
2018-11-05T22:18:14.291Z,11.41
2018-11-05T22:20:42.368Z,11.40
2018-11-05T22:23:10.459Z,11.38
2018-11-05T22:25:38.892Z,11.38
2018-11-05T22:28:07.105Z,11.36
2018-11-05T22:30:35.220Z,11.34
2018-11-05T22:33:11.793Z,11.32
2018-11-05T22:35:41.248Z,11.30
2018-11-05T22:38:09.345Z,11.26
2018-11-05T22:40:38.777Z,11.25
2018-11-05T22:43:06.856Z,11.23
2018-11-05T22:45:34.944Z,11.21
2018-11-05T22:48:03.035Z,11.16
2018-11-05T22:50:31.201Z,11.15
2018-11-05T22:52:59.168Z,11.12
2018-11-05T22:55:27.259Z,11.08
2018-11-05T22:57:55.455Z,11.07
2018-11-05T23:00:28.834Z,11.01
2018-11-05T23:03:02.280Z,10.95
2018-11-05T23:05:30.393Z,10.95
2018-11-05T23:07:59.279Z,10.94
2018-11-05T23:10:27.412Z,10.88
2018-11-05T23:12:55.568Z,10.87
2018-11-05T23:15:23.642Z,10.86
2018-11-05T23:17:52.018Z,10.86
2018-11-05T23:20:20.076Z,10.87
2018-11-05T23:22:48.196Z,10.86
2018-11-05T23:25:16.260Z,10.83
2018-11-05T23:27:44.321Z,10.81
2018-11-05T23:30:13.280Z,10.82
2018-11-05T23:32:41.544Z,10.81
2018-11-05T23:35:10.445Z,10.77
2018-11-05T23:37:39.615Z,10.78
2018-11-05T23:40:08.196Z,10.80
2018-11-05T23:42:37.306Z,10.80
2018-11-05T23:45:07.118Z,10.78
2018-11-05T23:47:35.187Z,10.74
2018-11-05T23:50:03.300Z,10.73
2018-11-05T23:52:31.363Z,10.72
2018-11-05T23:54:59.437Z,10.73
2018-11-05T23:57:27.490Z,10.69
2018-11-05T23:59:55.577Z,10.71
